createdAt,value
2019-05-28T00:02:39.004Z,8.95
2019-05-28T00:06:42.473Z,3.77
2019-05-28T00:10:45.922Z,5.97
2019-05-28T00:14:49.396Z,2.25
2019-05-28T00:18:52.883Z,2.22
2019-05-28T00:22:56.733Z,3.40
2019-05-28T00:27:00.288Z,2.83
2019-05-28T00:31:03.749Z,3.45
2019-05-28T00:35:07.643Z,7.20
2019-05-28T00:39:11.092Z,5.97
2019-05-28T00:43:14.621Z,4.72
2019-05-28T00:47:18.351Z,4.30
2019-05-28T00:51:21.812Z,6.62
2019-05-28T00:55:25.681Z,12.75
2019-05-28T00:59:32.614Z,4.65
2019-05-28T01:03:36.403Z,5.50
2019-05-28T01:07:39.941Z,4.22
2019-05-28T01:11:43.407Z,8.93
2019-05-28T01:15:46.886Z,11.03
2019-05-28T01:19:50.591Z,8.80
2019-05-28T01:23:54.359Z,6.80
2019-05-28T01:27:57.918Z,4.55
2019-05-28T01:32:01.647Z,5.50
2019-05-28T01:36:05.190Z,6.45
2019-05-28T01:40:08.939Z,11.40
2019-05-28T01:44:12.718Z,4.00
2019-05-28T01:48:16.200Z,5.23
2019-05-28T01:52:19.673Z,11.10
2019-05-28T01:56:23.131Z,7.00
2019-05-28T02:00:26.732Z,4.62
2019-05-28T02:04:30.182Z,4.77
2019-05-28T02:08:33.659Z,6.87
2019-05-28T02:12:37.503Z,6.30
2019-05-28T02:16:40.977Z,4.28
2019-05-28T02:20:45.524Z,7.45
2019-05-28T02:24:48.967Z,6.47
2019-05-28T02:28:52.439Z,7.47
2019-05-28T02:32:56.247Z,5.00
2019-05-28T02:37:00.176Z,3.95
2019-05-28T02:41:04.049Z,4.70
2019-05-28T02:45:10.916Z,4.33
2019-05-28T02:49:16.155Z,5.83
2019-05-28T02:53:20.052Z,4.93
2019-05-28T02:57:25.637Z,9.25
2019-05-28T03:01:43.075Z,13.88
2019-05-28T03:05:35.303Z,9.97
2019-05-28T03:09:40.671Z,7.65
2019-05-28T03:13:45.282Z,9.60
2019-05-28T03:17:49.114Z,13.40
2019-05-28T03:21:53.041Z,14.37
2019-05-28T03:25:56.484Z,7.70
2019-05-28T03:30:00.022Z,5.55
2019-05-28T03:34:03.485Z,9.45
2019-05-28T03:38:08.008Z,9.13
2019-05-28T03:42:11.467Z,6.72
2019-05-28T03:46:14.899Z,4.33
2019-05-28T03:50:18.605Z,6.62
2019-05-28T03:54:22.080Z,9.65
2019-05-28T03:58:25.557Z,7.87
2019-05-28T04:02:29.359Z,6.50
2019-05-28T04:06:33.055Z,7.50
2019-05-28T04:10:36.896Z,8.75
2019-05-28T04:14:40.607Z,10.08
2019-05-28T04:18:44.077Z,13.78
2019-05-28T04:22:47.563Z,9.03
2019-05-28T04:26:51.054Z,6.53
2019-05-28T04:30:54.787Z,13.48
2019-05-28T04:34:58.276Z,7.70
2019-05-28T04:39:01.739Z,5.92
2019-05-28T04:43:05.286Z,5.03
2019-05-28T04:47:09.146Z,7.73
2019-05-28T04:51:12.713Z,9.50
2019-05-28T04:55:16.180Z,10.80
2019-05-28T04:59:19.646Z,12.53
2019-05-28T05:03:23.395Z,5.00
2019-05-28T05:07:26.971Z,7.97
2019-05-28T05:11:30.683Z,6.72
2019-05-28T05:15:34.140Z,5.83
2019-05-28T05:19:38.756Z,7.92
2019-05-28T05:23:42.310Z,11.33
2019-05-28T05:27:45.833Z,6.05
2019-05-28T05:31:49.284Z,7.72
2019-05-28T05:35:52.765Z,9.03
2019-05-28T05:39:56.228Z,9.28
2019-05-28T05:44:01.270Z,6.15
2019-05-28T05:48:04.799Z,3.75
2019-05-28T05:52:08.250Z,3.80
2019-05-28T05:56:12.050Z,5.63
2019-05-28T06:00:17.477Z,4.03
2019-05-28T06:04:21.321Z,3.73
2019-05-28T06:08:24.779Z,7.33
2019-05-28T06:12:28.511Z,3.77
2019-05-28T06:16:32.044Z,6.75
2019-05-28T06:20:38.751Z,5.28
2019-05-28T06:24:42.589Z,4.47
2019-05-28T06:28:46.301Z,7.37
2019-05-28T06:32:50.001Z,1.85
2019-05-28T06:36:53.904Z,6.60
2019-05-28T06:40:57.429Z,5.85
2019-05-28T06:45:01.173Z,5.78
2019-05-28T06:49:04.782Z,4.90
2019-05-28T06:53:08.223Z,4.37
2019-05-28T06:57:22.258Z,2.50
2019-05-28T07:01:17.191Z,2.45
2019-05-28T07:05:20.742Z,4.03
2019-05-28T07:09:24.195Z,1.62
2019-05-28T07:13:27.684Z,0.85
2019-05-28T07:17:31.140Z,5.15
2019-05-28T07:21:34.877Z,4.95
2019-05-28T07:25:38.387Z,3.65
2019-05-28T07:29:41.862Z,3.60
2019-05-28T07:33:45.459Z,2.77
2019-05-28T07:37:49.188Z,5.87
2019-05-28T07:41:52.655Z,3.30
2019-05-28T07:45:56.395Z,4.92
2019-05-28T07:49:59.912Z,4.00
2019-05-28T07:54:03.535Z,5.25
2019-05-28T07:58:07.102Z,5.12
2019-05-28T08:02:10.956Z,2.22
2019-05-28T08:06:14.762Z,4.35
2019-05-28T08:10:18.496Z,1.50
2019-05-28T08:14:22.342Z,2.67
2019-05-28T08:18:25.810Z,0.85
2019-05-28T08:22:41.720Z,3.58
2019-05-28T08:26:34.475Z,4.20
2019-05-28T08:30:37.937Z,2.72
2019-05-28T08:34:41.432Z,1.50
2019-05-28T08:38:44.879Z,2.02
2019-05-28T08:42:48.650Z,2.00
2019-05-28T08:46:52.183Z,1.82
2019-05-28T08:50:55.646Z,3.30
2019-05-28T08:54:59.126Z,5.20
2019-05-28T08:59:02.948Z,1.65
2019-05-28T09:03:06.471Z,2.02
2019-05-28T09:07:10.466Z,5.92
2019-05-28T09:11:14.181Z,2.08
2019-05-28T09:15:17.911Z,0.97
2019-05-28T09:19:21.405Z,1.22
2019-05-28T09:23:24.938Z,2.30
2019-05-28T09:27:28.727Z,2.67
2019-05-28T09:31:32.210Z,1.90
2019-05-28T09:35:46.415Z,1.02
2019-05-28T09:39:41.151Z,3.30
2019-05-28T09:43:44.733Z,0.33
2019-05-28T09:47:48.712Z,0.88
2019-05-28T09:51:52.722Z,3.98
2019-05-28T09:55:56.265Z,2.60
2019-05-28T09:59:59.797Z,2.20
2019-05-28T10:04:03.318Z,1.95
2019-05-28T10:08:07.276Z,3.95
2019-05-28T10:12:10.748Z,3.05
2019-05-28T10:16:14.672Z,2.10
2019-05-28T10:20:19.563Z,2.65
2019-05-28T10:24:23.154Z,2.85
2019-05-28T10:28:26.896Z,1.60
2019-05-28T10:32:30.379Z,3.33
2019-05-28T10:36:36.435Z,1.02
2019-05-28T10:40:39.491Z,3.10
2019-05-28T10:44:45.280Z,1.27
2019-05-28T10:48:48.446Z,4.50
2019-05-28T10:52:52.012Z,2.50
2019-05-28T10:56:55.647Z,1.85
2019-05-28T11:00:59.417Z,2.05
2019-05-28T11:05:03.272Z,6.67
2019-05-28T11:09:09.024Z,4.08
2019-05-28T11:13:12.544Z,1.25
2019-05-28T11:17:16.003Z,0.90
2019-05-28T11:21:19.871Z,2.25
2019-05-28T11:25:23.629Z,2.55
2019-05-28T11:29:27.140Z,2.37
2019-05-28T11:33:32.135Z,2.62
2019-05-28T11:37:35.677Z,4.33
2019-05-28T11:41:42.967Z,1.87
2019-05-28T11:45:46.650Z,1.47
2019-05-28T11:49:50.250Z,2.50
2019-05-28T11:53:54.034Z,7.10
2019-05-28T11:57:57.494Z,3.33
2019-05-28T12:02:04.903Z,4.80
2019-05-28T12:06:06.151Z,5.45
2019-05-28T12:10:10.727Z,1.85
2019-05-28T12:14:14.810Z,1.60
2019-05-28T12:18:18.289Z,1.67
2019-05-28T12:22:21.751Z,2.65
2019-05-28T12:26:25.657Z,3.87
2019-05-28T12:30:29.690Z,2.20
2019-05-28T12:34:33.448Z,3.77
2019-05-28T12:38:37.039Z,1.52
2019-05-28T12:42:40.763Z,2.30
2019-05-28T12:46:44.265Z,3.22
2019-05-28T12:50:47.960Z,1.37
2019-05-28T12:54:51.717Z,4.10
2019-05-28T12:58:55.531Z,1.77
2019-05-28T13:02:59.374Z,1.30
2019-05-28T13:07:02.832Z,2.25
2019-05-28T13:11:06.570Z,2.58
2019-05-28T13:15:11.833Z,1.80
2019-05-28T13:19:15.559Z,3.53
2019-05-28T13:23:19.016Z,2.40
2019-05-28T13:27:22.485Z,0.68
2019-05-28T13:31:25.941Z,2.35
2019-05-28T13:35:29.757Z,1.77
2019-05-28T13:39:33.379Z,0.78
2019-05-28T13:43:37.212Z,3.58
2019-05-28T13:47:40.709Z,4.47
2019-05-28T13:51:44.326Z,2.70
2019-05-28T13:55:47.791Z,4.55
2019-05-28T13:59:58.584Z,1.22
2019-05-28T14:03:57.025Z,4.10
2019-05-28T14:08:00.830Z,2.30
2019-05-28T14:12:04.426Z,2.90
2019-05-28T14:16:07.879Z,0.77
2019-05-28T14:20:13.271Z,2.35
2019-05-28T14:24:16.844Z,3.92
2019-05-28T14:28:20.706Z,3.25
2019-05-28T14:32:24.421Z,2.42
2019-05-28T14:36:27.954Z,2.37
2019-05-28T14:40:31.668Z,2.15
2019-05-28T14:44:35.519Z,2.40
2019-05-28T14:48:38.981Z,3.22
2019-05-28T14:52:42.502Z,2.52
2019-05-28T14:56:45.977Z,2.87
2019-05-28T15:00:49.510Z,2.90
2019-05-28T15:04:52.993Z,1.80
2019-05-28T15:08:56.536Z,1.95
2019-05-28T15:13:00.329Z,2.70
2019-05-28T15:17:03.946Z,2.15
2019-05-28T15:21:07.412Z,3.47
2019-05-28T15:25:11.476Z,2.95
2019-05-28T15:29:14.937Z,3.27
2019-05-28T15:33:19.039Z,2.47
2019-05-28T15:37:22.544Z,2.50
2019-05-28T15:41:26.268Z,4.62
2019-05-28T15:45:29.743Z,3.67
2019-05-28T15:49:33.204Z,2.12
2019-05-28T15:53:36.650Z,3.55
2019-05-28T15:57:40.104Z,0.90
2019-05-28T16:01:43.571Z,1.98
2019-05-28T16:05:47.458Z,2.52
2019-05-28T16:09:56.118Z,2.33
2019-05-28T16:13:56.443Z,4.28
2019-05-28T16:17:59.909Z,4.83
2019-05-28T16:22:03.666Z,3.20
2019-05-28T16:26:07.514Z,3.60
2019-05-28T16:30:13.244Z,2.80
2019-05-28T16:34:17.024Z,2.08
2019-05-28T16:38:20.457Z,3.80
2019-05-28T16:42:23.918Z,3.22
2019-05-28T16:46:27.428Z,1.52
2019-05-28T16:50:30.878Z,3.02
2019-05-28T16:54:34.607Z,1.90
2019-05-28T16:58:38.070Z,1.05
2019-05-28T17:02:41.528Z,1.13
2019-05-28T17:06:45.003Z,2.92
2019-05-28T17:10:48.456Z,1.22
2019-05-28T17:14:51.980Z,3.58
2019-05-28T17:18:55.581Z,1.53
2019-05-28T17:22:59.095Z,2.58
2019-05-28T17:27:02.555Z,2.02
2019-05-28T17:31:06.091Z,1.37
2019-05-28T17:35:10.175Z,3.50
2019-05-28T17:39:13.700Z,4.55
2019-05-28T17:43:17.589Z,2.35
2019-05-28T17:47:21.102Z,2.27
2019-05-28T17:51:24.649Z,1.22
2019-05-28T17:55:28.432Z,4.85
2019-05-28T17:59:31.964Z,4.17
2019-05-28T18:03:35.571Z,0.68
2019-05-28T18:07:39.072Z,4.15
2019-05-28T18:11:42.819Z,2.85
2019-05-28T18:15:55.909Z,3.27
2019-05-28T18:20:00.283Z,1.55
2019-05-28T18:24:03.800Z,1.62
2019-05-28T18:28:07.325Z,2.95
2019-05-28T18:32:10.943Z,1.53
2019-05-28T18:36:16.894Z,2.83
2019-05-28T18:40:21.932Z,4.10
2019-05-28T18:44:25.445Z,13.60
2019-05-28T18:48:29.241Z,1.20
2019-05-28T18:52:33.039Z,1.42
2019-05-28T18:56:36.751Z,1.07
2019-05-28T19:00:40.537Z,2.95
2019-05-28T19:04:44.375Z,2.75
2019-05-28T19:08:48.083Z,3.27
2019-05-28T19:12:51.902Z,3.75
2019-05-28T19:16:55.714Z,1.85
2019-05-28T19:20:59.184Z,1.07
2019-05-28T19:25:02.689Z,2.20
2019-05-28T19:29:06.554Z,4.50
2019-05-28T19:33:10.375Z,4.00
2019-05-28T19:37:14.317Z,0.72
2019-05-28T19:41:18.109Z,1.03
2019-05-28T19:45:21.898Z,0.70
2019-05-28T19:49:25.490Z,1.10
2019-05-28T19:53:30.412Z,1.05
2019-05-28T19:57:34.281Z,3.95
2019-05-28T20:01:37.856Z,6.37
2019-05-28T20:05:41.567Z,2.47
2019-05-28T20:09:45.166Z,1.40
2019-05-28T20:13:49.687Z,0.20
2019-05-28T20:17:54.562Z,1.92
2019-05-28T20:21:59.925Z,2.03
2019-05-28T20:26:03.855Z,0.27
2019-05-28T20:30:09.656Z,1.12
2019-05-28T20:34:13.145Z,0.40
2019-05-28T20:38:16.622Z,1.70
2019-05-28T20:42:27.257Z,0.17
2019-05-28T20:46:25.291Z,3.83
2019-05-28T20:50:30.288Z,2.12
2019-05-28T20:54:34.126Z,0.80
2019-05-28T20:58:40.588Z,0.95
2019-05-28T21:02:43.844Z,0.47
2019-05-28T21:06:48.016Z,0.82
2019-05-28T21:10:52.599Z,0.78
2019-05-28T21:14:58.793Z,1.37
2019-05-28T21:19:01.395Z,2.13
2019-05-28T21:23:04.939Z,1.27
2019-05-28T21:27:08.426Z,4.10
2019-05-28T21:31:12.364Z,4.00
2019-05-28T21:35:15.910Z,0.68
2019-05-28T21:39:19.384Z,0.40
2019-05-28T21:43:22.855Z,3.70
2019-05-28T21:47:26.336Z,1.27
2019-05-28T21:51:29.870Z,3.85
2019-05-28T21:55:33.334Z,8.73
2019-05-28T21:59:36.819Z,2.15
2019-05-28T22:03:40.305Z,2.08
2019-05-28T22:07:43.779Z,1.37
2019-05-28T22:11:47.257Z,4.78
2019-05-28T22:15:50.847Z,1.12
2019-05-28T22:19:54.580Z,2.67
2019-05-28T22:24:00.623Z,3.33
2019-05-28T22:32:07.136Z,7.03
2019-05-28T22:36:11.019Z,3.98
2019-05-28T22:40:14.786Z,0.70
2019-05-28T22:44:19.822Z,5.50
2019-05-28T22:48:23.276Z,1.22
2019-05-28T22:52:27.059Z,2.10
2019-05-28T22:56:30.524Z,3.15
2019-05-28T23:00:34.052Z,1.52
2019-05-28T23:04:37.529Z,4.47
2019-05-28T23:08:41.001Z,4.42
2019-05-28T23:12:44.519Z,2.60
2019-05-28T23:16:48.250Z,1.47
2019-05-28T23:20:51.703Z,2.58
2019-05-28T23:24:55.191Z,1.27
2019-05-28T23:28:58.671Z,5.85
2019-05-28T23:33:02.340Z,1.10
2019-05-28T23:37:07.222Z,0.65
2019-05-28T23:41:13.427Z,2.47
2019-05-28T23:45:16.355Z,0.77
2019-05-28T23:49:19.819Z,4.12
2019-05-28T23:53:23.271Z,2.70
2019-05-28T23:57:26.740Z,5.10
